Time;durP1;ratioP1;P1;durP2;ratioP2;P2;SDS_P1;SDS_P2;PMS_P1;PMS_P2;Temp;Humidity;BMP_temperature;BMP_pressure;BME280_temperature;BME280_humidity;BME280_pressure;Samples;Min_cycle;Max_cycle;Signal;HPM_P1;HPM_P2
2022/01/07 00:00:37;;;;;;;14.57;5.18;;;4.40;99.90;;;;;;5051878;28;20036;-72
2022/01/07 00:03:03;;;;;;;12.48;5.00;;;4.40;99.90;;;;;;5052238;28;20021;-71
2022/01/07 00:05:29;;;;;;;15.68;5.40;;;4.40;99.90;;;;;;5051668;28;20427;-71
2022/01/07 00:07:54;;;;;;;11.88;5.30;;;4.40;99.90;;;;;;5052407;28;20429;-70
2022/01/07 00:10:21;;;;;;;16.15;4.50;;;4.40;99.90;;;;;;5051905;28;20108;-72
2022/01/07 00:12:48;;;;;;;12.07;5.25;;;4.40;99.90;;;;;;5052009;28;20021;-71
2022/01/07 00:15:15;;;;;;;13.23;4.75;;;4.40;99.90;;;;;;5051677;28;20060;-71
2022/01/07 00:17:41;;;;;;;17.70;4.57;;;4.50;99.90;;;;;;5052704;28;20025;-72
2022/01/07 00:20:09;;;;;;;12.40;4.57;;;4.50;99.90;;;;;;5037811;28;20408;-71
2022/01/07 00:22:35;;;;;;;11.43;4.70;;;4.50;99.90;;;;;;5055586;28;20033;-72
2022/01/07 00:25:01;;;;;;;14.73;4.95;;;4.50;99.90;;;;;;5054168;28;20139;-71
2022/01/07 00:27:27;;;;;;;12.00;4.50;;;4.50;99.90;;;;;;5055745;28;20091;-72
2022/01/07 00:29:52;;;;;;;13.45;4.88;;;4.50;99.90;;;;;;5055558;28;20735;-70
2022/01/07 00:32:18;;;;;;;17.10;4.90;;;4.50;99.90;;;;;;5055748;28;20040;-71
2022/01/07 00:34:44;;;;;;;14.93;4.70;;;4.50;99.90;;;;;;5056048;28;20677;-71
2022/01/07 00:37:10;;;;;;;13.60;4.35;;;4.50;99.90;;;;;;5056117;28;20445;-71
2022/01/07 00:39:36;;;;;;;14.40;4.32;;;4.50;99.90;;;;;;5056586;28;20017;-71
2022/01/07 00:42:02;;;;;;;10.93;4.55;;;4.50;99.90;;;;;;5038381;28;20029;-71
2022/01/07 00:44:27;;;;;;;16.58;4.60;;;4.50;99.90;;;;;;5056045;28;20017;-72
2022/01/07 00:46:53;;;;;;;12.18;5.07;;;4.60;99.90;;;;;;5055494;28;20366;-72
2022/01/07 00:49:21;;;;;;;12.57;5.32;;;4.60;99.90;;;;;;5055755;28;20389;-72
2022/01/07 00:51:48;;;;;;;16.75;5.15;;;4.60;99.90;;;;;;5055869;28;20070;-72
2022/01/07 00:54:14;;;;;;;12.07;4.95;;;4.60;99.90;;;;;;5055657;28;20033;-72
2022/01/07 00:56:40;;;;;;;15.82;5.18;;;4.60;99.90;;;;;;5055288;28;20048;-71
2022/01/07 00:59:06;;;;;;;12.98;5.47;;;4.60;99.90;;;;;;5055350;28;20025;-72
2022/01/07 01:01:31;;;;;;;13.65;5.55;;;4.70;99.90;;;;;;5055231;28;20009;-71
2022/01/07 01:03:57;;;;;;;17.25;6.32;;;4.70;99.90;;;;;;5055215;28;20209;-72
2022/01/07 01:06:22;;;;;;;16.95;5.70;;;4.70;99.90;;;;;;5055099;28;20067;-72
2022/01/07 01:08:48;;;;;;;11.77;5.80;;;4.70;99.90;;;;;;5055407;28;20029;-72
2022/01/07 01:11:13;;;;;;;16.95;6.70;;;4.70;99.90;;;;;;5054712;28;20033;-72
2022/01/07 01:13:39;;;;;;;17.50;6.55;;;4.70;99.90;;;;;;5055127;28;20021;-72
2022/01/07 01:16:05;;;;;;;16.50;6.75;;;4.70;99.90;;;;;;5055123;28;20033;-72
2022/01/07 01:18:30;;;;;;;12.75;6.35;;;4.70;99.90;;;;;;5054882;28;20464;-71
2022/01/07 01:20:56;;;;;;;16.58;6.78;;;4.70;99.90;;;;;;5055050;28;20556;-72
2022/01/07 01:23:22;;;;;;;13.65;6.13;;;4.70;99.90;;;;;;5054724;28;20021;-71
2022/01/07 01:25:47;;;;;;;11.65;5.75;;;4.70;99.90;;;;;;5056891;28;20280;-72
2022/01/07 01:28:13;;;;;;;18.95;6.15;;;4.70;99.90;;;;;;5072718;28;20032;-72
2022/01/07 01:30:38;;;;;;;13.23;5.88;;;4.70;99.90;;;;;;5073807;28;20081;-72
2022/01/07 01:33:04;;;;;;;17.85;6.68;;;4.70;99.90;;;;;;5075298;28;20020;-72
2022/01/07 01:35:30;;;;;;;14.27;6.75;;;4.70;99.90;;;;;;5075280;28;20032;-71
2022/01/07 01:37:56;;;;;;;13.50;6.53;;;4.70;99.90;;;;;;5075335;28;20027;-71
2022/01/07 01:40:22;;;;;;;16.35;6.47;;;4.70;99.90;;;;;;5074836;28;20024;-72
2022/01/07 01:42:52;;;;;;;21.75;7.40;;;4.70;99.90;;;;;;5074212;28;20090;-72
2022/01/07 01:45:19;;;;;;;14.15;6.85;;;4.70;99.90;;;;;;5074892;28;20028;-72
2022/01/07 01:47:45;;;;;;;16.65;6.95;;;4.70;99.90;;;;;;5075456;28;20400;-72
2022/01/07 01:50:13;;;;;;;16.30;7.28;;;4.80;99.90;;;;;;5061073;28;20025;-72
2022/01/07 01:52:45;;;;;;;17.08;7.60;;;4.80;99.90;;;;;;5054673;28;20029;-71
2022/01/07 01:55:11;;;;;;;17.30;7.65;;;4.80;99.90;;;;;;5054590;28;20028;-71
2022/01/07 01:57:36;;;;;;;15.57;7.28;;;4.70;99.90;;;;;;5054332;28;20075;-71
2022/01/07 02:00:05;;;;;;;12.15;6.82;;;4.80;99.90;;;;;;5054768;28;20032;-71
2022/01/07 02:02:31;;;;;;;14.38;7.03;;;4.80;99.90;;;;;;5054792;28;20396;-71
2022/01/07 02:04:56;;;;;;;14.88;7.10;;;4.80;99.90;;;;;;5056895;28;20099;-72
2022/01/07 02:07:25;;;;;;;13.07;6.78;;;4.80;99.90;;;;;;5053639;28;20381;-72
2022/01/07 02:09:52;;;;;;;14.13;7.65;;;4.80;99.90;;;;;;5054962;28;20017;-72
2022/01/07 02:12:17;;;;;;;15.27;6.90;;;4.80;99.90;;;;;;5054384;28;20025;-72
2022/01/07 02:14:51;;;;;;;13.25;6.47;;;4.80;99.90;;;;;;5036985;28;20032;-72
2022/01/07 02:17:17;;;;;;;10.93;6.45;;;4.80;99.90;;;;;;5054082;28;20021;-71
2022/01/07 02:19:42;;;;;;;13.13;7.07;;;4.80;99.90;;;;;;5054587;28;20413;-72
2022/01/07 02:22:08;;;;;;;14.25;6.97;;;4.80;99.90;;;;;;5053724;28;20024;-72
2022/01/07 02:24:35;;;;;;;18.95;7.40;;;4.80;99.90;;;;;;5053540;28;20057;-72
2022/01/07 02:27:01;;;;;;;12.27;6.63;;;4.80;99.90;;;;;;5054085;28;20032;-72
2022/01/07 02:29:27;;;;;;;15.15;7.75;;;4.80;99.90;;;;;;5053294;28;20497;-73
2022/01/07 02:31:52;;;;;;;11.85;7.20;;;4.80;99.90;;;;;;5052998;28;20060;-72
2022/01/07 02:34:18;;;;;;;12.77;6.57;;;4.80;99.90;;;;;;5052844;28;20481;-72
2022/01/07 02:36:44;;;;;;;11.45;6.82;;;4.80;99.90;;;;;;5053080;28;20484;-72
2022/01/07 02:39:09;;;;;;;13.02;6.95;;;4.80;99.90;;;;;;5052662;28;20057;-72
2022/01/07 02:41:35;;;;;;;11.18;6.53;;;4.80;99.90;;;;;;5052619;28;20021;-71
2022/01/07 02:44:00;;;;;;;12.50;7.15;;;4.70;99.90;;;;;;5053375;28;20029;-72
2022/01/07 02:46:26;;;;;;;12.38;7.65;;;4.80;99.90;;;;;;5053606;28;20421;-71
2022/01/07 02:48:52;;;;;;;14.23;8.57;;;4.80;99.90;;;;;;5053701;28;20025;-71
2022/01/07 02:51:17;;;;;;;22.77;8.93;;;4.80;99.90;;;;;;5053523;28;20021;-72
2022/01/07 02:53:43;;;;;;;17.08;9.70;;;4.80;99.90;;;;;;5053745;28;20025;-71
2022/01/07 02:56:11;;;;;;;20.17;10.45;;;4.80;99.90;;;;;;5053920;28;20047;-71
2022/01/07 02:58:37;;;;;;;19.52;10.38;;;4.80;99.90;;;;;;5036494;28;20104;-71
2022/01/07 03:01:02;;;;;;;19.23;10.77;;;4.90;99.90;;;;;;5055725;28;20414;-71
2022/01/07 03:03:28;;;;;;;24.17;9.98;;;4.80;99.90;;;;;;5055434;28;20476;-71
2022/01/07 03:05:53;;;;;;;20.42;10.65;;;4.90;99.90;;;;;;5054509;28;20079;-71
2022/01/07 03:08:19;;;;;;;21.40;11.13;;;4.90;99.90;;;;;;5053945;28;20507;-71
2022/01/07 03:10:45;;;;;;;20.10;10.73;;;4.90;99.90;;;;;;5053901;28;20086;-71
2022/01/07 03:13:10;;;;;;;15.85;9.32;;;4.90;99.90;;;;;;5053844;28;20017;-71
2022/01/07 03:15:38;;;;;;;19.80;10.50;;;5.00;99.90;;;;;;5054651;28;20024;-71
2022/01/07 03:18:05;;;;;;;19.80;10.32;;;4.90;99.90;;;;;;5053980;28;20053;-71
2022/01/07 03:20:38;;;;;;;21.67;11.07;;;5.00;99.90;;;;;;5053713;28;20445;-71
2022/01/07 03:23:07;;;;;;;22.02;10.68;;;5.00;99.90;;;;;;5053653;28;20017;-72
2022/01/07 03:25:33;;;;;;;15.60;9.70;;;5.00;99.90;;;;;;5053926;28;20099;-71
2022/01/07 03:27:59;;;;;;;19.17;10.10;;;5.00;99.90;;;;;;5053486;28;20017;-71
2022/01/07 03:30:24;;;;;;;22.17;10.60;;;5.00;99.90;;;;;;5053189;28;20040;-71
2022/01/07 03:32:50;;;;;;;18.92;10.65;;;5.00;99.90;;;;;;5053587;28;20036;-71
2022/01/07 03:35:17;;;;;;;22.55;11.60;;;5.00;99.90;;;;;;5053072;28;20040;-72
2022/01/07 03:37:44;;;;;;;19.90;10.73;;;5.00;99.90;;;;;;5053548;28;20052;-71
2022/01/07 03:40:12;;;;;;;15.15;10.05;;;5.00;99.90;;;;;;5053459;28;20063;-72
2022/01/07 03:42:39;;;;;;;14.50;10.05;;;5.00;99.90;;;;;;5035076;28;20555;-72
2022/01/07 03:45:06;;;;;;;17.33;11.32;;;5.00;99.90;;;;;;5053660;28;20078;-72
2022/01/07 03:47:33;;;;;;;20.80;10.50;;;5.00;99.90;;;;;;5053260;28;20427;-72
2022/01/07 03:49:58;;;;;;;16.50;11.05;;;5.00;99.90;;;;;;5053004;28;20040;-71
2022/01/07 03:52:24;;;;;;;19.90;11.55;;;5.00;99.90;;;;;;5055799;28;20020;-72
2022/01/07 03:54:51;;;;;;;21.13;11.70;;;5.00;99.90;;;;;;5057523;28;20036;-72
2022/01/07 03:57:17;;;;;;;19.63;12.35;;;5.10;99.90;;;;;;5057523;28;20025;-71
2022/01/07 03:59:43;;;;;;;19.65;11.75;;;5.10;99.90;;;;;;5058476;28;20025;-71
2022/01/07 04:02:08;;;;;;;25.70;11.68;;;5.10;99.90;;;;;;5058470;28;20135;-71
2022/01/07 04:04:34;;;;;;;22.88;11.43;;;5.10;99.90;;;;;;5057501;28;20036;-72
2022/01/07 04:07:00;;;;;;;18.60;11.38;;;5.10;99.90;;;;;;5057295;28;20059;-72
2022/01/07 04:09:25;;;;;;;21.15;11.73;;;5.10;99.90;;;;;;5056995;28;20036;-72
2022/01/07 04:11:52;;;;;;;22.73;12.15;;;5.10;99.90;;;;;;5057125;28;20049;-72
2022/01/07 04:14:17;;;;;;;22.15;11.50;;;5.10;99.90;;;;;;5057730;28;20031;-72
2022/01/07 04:16:43;;;;;;;21.35;12.57;;;5.10;99.90;;;;;;5057581;28;20111;-71
2022/01/07 04:19:09;;;;;;;21.42;12.02;;;5.10;99.90;;;;;;5039585;28;20036;-72
2022/01/07 04:21:34;;;;;;;17.85;11.32;;;5.20;99.90;;;;;;5057767;28;20029;-73
2022/01/07 04:24:00;;;;;;;19.58;11.00;;;5.20;99.90;;;;;;5056876;28;20063;-73
2022/01/07 04:26:25;;;;;;;19.65;10.25;;;5.20;99.90;;;;;;5057572;28;20029;-71
2022/01/07 04:28:51;;;;;;;15.90;9.80;;;5.20;99.90;;;;;;5057304;28;20017;-71
2022/01/07 04:31:16;;;;;;;18.20;9.85;;;5.20;99.90;;;;;;5056938;28;20017;-71
2022/01/07 04:33:42;;;;;;;17.67;9.40;;;5.20;99.90;;;;;;5057064;28;20485;-71
2022/01/07 04:36:08;;;;;;;15.23;10.13;;;5.20;99.90;;;;;;5038801;28;20025;-72
2022/01/07 04:38:33;;;;;;;21.33;11.88;;;5.20;99.90;;;;;;5039142;28;20064;-71
2022/01/07 04:40:59;;;;;;;25.02;12.65;;;5.20;99.90;;;;;;5056815;28;20021;-71
2022/01/07 04:43:24;;;;;;;19.90;11.45;;;5.20;99.90;;;;;;5056500;28;20025;-71
2022/01/07 04:45:51;;;;;;;21.13;11.63;;;5.30;99.90;;;;;;5057012;28;20043;-71
2022/01/07 04:48:17;;;;;;;19.75;11.38;;;5.30;99.90;;;;;;5038648;28;20558;-71
2022/01/07 04:50:43;;;;;;;20.25;11.60;;;5.30;99.90;;;;;;5056318;28;20029;-72
2022/01/07 04:53:08;;;;;;;19.33;11.65;;;5.40;99.90;;;;;;5056431;28;20070;-71
2022/01/07 04:55:37;;;;;;;21.23;11.52;;;5.40;99.90;;;;;;5055679;28;20024;-72
2022/01/07 04:58:07;;;;;;;19.48;11.30;;;5.40;99.90;;;;;;5056958;28;20029;-72
2022/01/07 05:00:33;;;;;;;21.38;11.05;;;5.40;99.90;;;;;;5056609;28;20029;-72
2022/01/07 05:02:59;;;;;;;23.92;11.55;;;5.40;99.90;;;;;;5056551;28;20423;-71
2022/01/07 05:05:24;;;;;;;20.08;11.23;;;5.40;99.90;;;;;;5055868;28;20048;-72
2022/01/07 05:07:50;;;;;;;18.73;11.13;;;5.40;99.90;;;;;;5055818;28;20037;-72
2022/01/07 05:10:16;;;;;;;19.42;11.75;;;5.50;99.90;;;;;;5056642;28;20032;-72
2022/01/07 05:12:42;;;;;;;31.17;12.15;;;5.50;99.90;;;;;;5056853;28;20017;-72
2022/01/07 05:15:09;;;;;;;18.55;11.70;;;5.50;99.90;;;;;;5056780;28;20021;-72
2022/01/07 05:17:36;;;;;;;24.58;11.52;;;5.50;99.90;;;;;;5055806;28;20029;-72
2022/01/07 05:20:03;;;;;;;24.77;11.70;;;5.50;99.90;;;;;;5056238;28;20104;-71
2022/01/07 05:22:29;;;;;;;25.33;12.13;;;5.50;99.90;;;;;;5056382;28;20413;-72
2022/01/07 05:24:54;;;;;;;21.33;10.95;;;5.50;99.90;;;;;;5055474;28;20053;-72
2022/01/07 05:27:20;;;;;;;17.45;10.45;;;5.50;99.90;;;;;;5056523;28;20032;-72
2022/01/07 05:29:46;;;;;;;22.52;11.15;;;5.50;99.90;;;;;;5055952;28;20029;-72
2022/01/07 05:32:11;;;;;;;22.27;10.20;;;5.50;99.90;;;;;;5055902;28;20028;-72
2022/01/07 05:34:37;;;;;;;23.33;10.93;;;5.50;99.90;;;;;;5055584;28;20396;-72
2022/01/07 05:37:03;;;;;;;18.58;10.38;;;5.50;99.90;;;;;;5055909;28;20027;-73
2022/01/07 05:39:29;;;;;;;22.08;11.35;;;5.50;99.90;;;;;;5055859;28;20108;-72
2022/01/07 05:41:55;;;;;;;22.95;11.45;;;5.50;99.90;;;;;;5055655;28;20021;-72
2022/01/07 05:44:21;;;;;;;26.17;12.75;;;5.50;99.90;;;;;;5056060;28;20029;-72
2022/01/07 05:46:47;;;;;;;25.40;12.63;;;5.50;99.90;;;;;;5055998;28;20021;-72
2022/01/07 05:49:13;;;;;;;21.15;12.55;;;5.50;99.90;;;;;;5036968;28;20091;-72
2022/01/07 05:51:41;;;;;;;20.40;12.43;;;5.50;99.90;;;;;;5055518;28;20032;-73
2022/01/07 05:54:07;;;;;;;28.85;12.75;;;5.50;99.90;;;;;;5056137;28;20013;-72
2022/01/07 05:56:32;;;;;;;27.90;13.13;;;5.50;99.90;;;;;;5055042;28;20396;-72
2022/01/07 05:58:58;;;;;;;24.25;12.48;;;5.50;99.90;;;;;;5055424;28;20043;-72
2022/01/07 06:01:23;;;;;;;26.95;13.27;;;5.50;99.90;;;;;;5055252;28;20478;-72
2022/01/07 06:03:49;;;;;;;25.70;13.90;;;5.50;99.90;;;;;;5055317;28;20096;-72
2022/01/07 06:06:15;;;;;;;26.83;14.25;;;5.50;99.90;;;;;;5055019;28;20025;-72
2022/01/07 06:08:40;;;;;;;25.02;13.85;;;5.60;99.90;;;;;;5054951;28;20357;-73
2022/01/07 06:11:06;;;;;;;32.75;15.23;;;5.50;99.90;;;;;;5055138;28;20024;-72
2022/01/07 06:13:31;;;;;;;24.42;15.35;;;5.60;99.90;;;;;;5054654;28;20104;-73
2022/01/07 06:15:57;;;;;;;27.20;14.88;;;5.50;99.90;;;;;;5054072;28;20033;-72
2022/01/07 06:18:22;;;;;;;35.65;14.77;;;5.60;99.90;;;;;;5054812;28;20113;-72
2022/01/07 06:20:48;;;;;;;31.65;14.65;;;5.60;99.90;;;;;;5055092;28;20083;-72
2022/01/07 06:23:14;;;;;;;24.70;14.13;;;5.60;99.90;;;;;;5055321;28;20028;-72
2022/01/07 06:25:42;;;;;;;30.20;13.93;;;5.60;99.90;;;;;;5054701;28;20053;-71
2022/01/07 06:28:08;;;;;;;24.00;13.52;;;5.60;99.90;;;;;;5054097;28;20086;-72
2022/01/07 06:30:33;;;;;;;26.27;14.40;;;5.60;99.90;;;;;;5054794;28;20527;-72
2022/01/07 06:32:59;;;;;;;25.92;13.23;;;5.60;99.90;;;;;;5054954;28;20058;-73
2022/01/07 06:35:24;;;;;;;28.13;13.90;;;5.60;99.90;;;;;;5054439;28;20094;-72
2022/01/07 06:37:50;;;;;;;26.25;14.13;;;5.60;99.90;;;;;;5054221;28;20282;-72
2022/01/07 06:40:16;;;;;;;26.08;13.82;;;5.60;99.90;;;;;;5054253;28;20025;-72
2022/01/07 06:42:41;;;;;;;28.30;13.45;;;5.60;99.90;;;;;;5054356;28;20601;-71
2022/01/07 06:45:07;;;;;;;26.50;13.32;;;5.60;99.90;;;;;;5054227;28;20079;-72
2022/01/07 06:47:33;;;;;;;32.35;13.60;;;5.50;99.90;;;;;;5054676;28;20104;-73
2022/01/07 06:49:59;;;;;;;22.50;11.63;;;5.60;99.90;;;;;;5054189;28;20033;-72
2022/01/07 06:52:25;;;;;;;24.13;12.07;;;5.50;99.90;;;;;;5054493;28;20094;-72
2022/01/07 06:54:50;;;;;;;25.55;10.82;;;5.50;99.90;;;;;;5036423;28;20079;-72
2022/01/07 06:57:16;;;;;;;20.27;10.85;;;5.50;99.90;;;;;;5053789;28;20067;-72
2022/01/07 06:59:42;;;;;;;22.85;10.65;;;5.50;99.90;;;;;;5053822;28;20033;-72
2022/01/07 07:02:07;;;;;;;22.70;10.55;;;5.50;99.90;;;;;;5053811;28;20017;-71
2022/01/07 07:04:34;;;;;;;26.08;10.55;;;5.50;99.90;;;;;;5054135;28;20108;-72
2022/01/07 07:06:59;;;;;;;24.38;10.43;;;5.50;99.90;;;;;;5053413;28;20345;-72
2022/01/07 07:09:25;;;;;;;21.55;9.60;;;5.50;99.90;;;;;;5053778;28;20082;-73
2022/01/07 07:11:50;;;;;;;23.13;8.98;;;5.50;99.90;;;;;;5054527;28;20048;-72
2022/01/07 07:14:16;;;;;;;20.23;8.95;;;5.40;99.90;;;;;;5053348;28;20029;-72
2022/01/07 07:16:43;;;;;;;20.90;8.77;;;5.40;99.90;;;;;;5054856;28;20508;-71
2022/01/07 07:19:09;;;;;;;23.00;9.43;;;5.40;99.90;;;;;;5055836;28;20021;-72
2022/01/07 07:21:35;;;;;;;19.80;9.10;;;5.40;99.90;;;;;;5061879;28;20035;-72
2022/01/07 07:24:02;;;;;;;21.55;9.48;;;5.40;99.90;;;;;;5058323;28;20079;-73
2022/01/07 07:26:28;;;;;;;20.10;8.88;;;5.40;99.90;;;;;;5066884;28;20376;-72
2022/01/07 07:28:53;;;;;;;20.42;8.88;;;5.40;99.90;;;;;;5060834;28;20021;-74
2022/01/07 07:31:20;;;;;;;22.20;8.13;;;5.40;99.90;;;;;;5067562;28;20073;-73
2022/01/07 07:36:31;;;;;;;20.23;7.05;;;5.40;99.90;;;;;;5058359;28;20100;-72
2022/01/07 07:39:02;;;;;;;;;;;5.50;99.90;;;;;;5060446;28;20396;-73
2022/01/07 07:41:29;;;;;;;21.25;6.10;;;5.40;99.90;;;;;;5059577;28;19904;-72
2022/01/07 07:43:57;;;;;;;19.40;6.28;;;5.40;99.90;;;;;;5065497;28;20028;-72
2022/01/07 07:46:23;;;;;;;17.88;5.68;;;5.40;99.90;;;;;;5065819;28;20031;-74
2022/01/07 07:48:51;;;;;;;20.13;5.47;;;5.40;99.90;;;;;;5088079;28;20396;-73
2022/01/07 07:51:17;;;;;;;20.33;4.97;;;5.40;99.90;;;;;;5045935;28;20024;-72
2022/01/07 07:53:43;;;;;;;18.17;5.68;;;5.40;99.90;;;;;;5066681;28;20032;-72
2022/01/07 07:56:15;;;;;;;23.20;5.93;;;5.40;99.90;;;;;;5061209;28;20101;-73
2022/01/07 07:58:42;;;;;;;17.77;5.38;;;5.40;99.90;;;;;;5055341;28;20047;-72
2022/01/07 08:01:08;;;;;;;21.05;5.88;;;5.40;99.90;;;;;;5060653;28;20032;-72
2022/01/07 08:03:34;;;;;;;20.10;5.90;;;5.30;99.90;;;;;;5060437;28;20481;-73
2022/01/07 08:06:00;;;;;;;19.17;6.25;;;5.40;99.90;;;;;;5054912;28;20092;-72
2022/01/07 08:08:25;;;;;;;16.05;6.00;;;5.30;99.90;;;;;;5049518;28;20052;-72
2022/01/07 08:10:55;;;;;;;15.82;6.28;;;5.30;99.90;;;;;;5046133;28;20031;-73
2022/01/07 08:16:06;;;;;;;18.73;6.72;;;5.30;99.90;;;;;;5069474;28;20424;-73
2022/01/07 08:18:35;;;;;;;19.15;6.15;;;5.30;99.90;;;;;;5059500;28;20025;-72
2022/01/07 08:21:06;;;;;;;21.80;6.28;;;5.30;99.90;;;;;;5069261;28;20063;-72
2022/01/07 08:23:33;;;;;;;24.45;6.22;;;5.30;99.90;;;;;;5058068;28;20029;-71
2022/01/07 08:26:00;;;;;;;16.30;6.43;;;5.30;99.90;;;;;;5063363;28;20017;-72
2022/01/07 08:28:29;;;;;;;23.50;6.47;;;5.30;99.90;;;;;;5064718;28;20020;-72
2022/01/07 08:31:01;;;;;;;21.88;6.43;;;5.30;99.90;;;;;;5069321;28;20028;-71
2022/01/07 08:36:13;;;;;;;24.38;6.90;;;5.30;99.90;;;;;;5071602;28;20031;-71
2022/01/07 08:38:39;;;;;;;19.48;6.45;;;5.30;99.90;;;;;;5059399;28;20036;-71
2022/01/07 08:41:05;;;;;;;23.35;6.43;;;5.30;99.90;;;;;;5066299;28;20054;-71
2022/01/07 08:43:31;;;;;;;19.35;7.07;;;5.30;99.90;;;;;;5071931;28;20058;-71
2022/01/07 08:45:56;;;;;;;17.77;6.85;;;5.30;99.90;;;;;;5061160;28;20021;-71
2022/01/07 08:48:22;;;;;;;24.58;7.15;;;5.40;99.90;;;;;;5071749;28;20012;-71
2022/01/07 08:50:47;;;;;;;21.60;6.50;;;5.40;99.90;;;;;;5062849;28;20464;-72
2022/01/07 08:53:13;;;;;;;24.48;7.25;;;5.40;99.90;;;;;;5068026;28;20096;-72
2022/01/07 08:55:39;;;;;;;17.95;6.93;;;5.40;99.90;;;;;;5060309;28;20384;-72
2022/01/07 08:58:05;;;;;;;20.17;7.40;;;5.50;99.90;;;;;;5072395;28;20012;-72
2022/01/07 09:00:32;;;;;;;21.58;7.72;;;5.60;99.90;;;;;;5058052;28;20040;-72
2022/01/07 09:02:58;;;;;;;24.90;7.10;;;5.70;99.90;;;;;;5055602;28;20025;-72
2022/01/07 09:05:24;;;;;;;33.10;7.00;;;5.70;99.90;;;;;;5061342;28;20021;-72
2022/01/07 09:07:49;;;;;;;20.13;6.90;;;5.80;99.90;;;;;;5065533;28;20090;-72
2022/01/07 09:10:15;;;;;;;19.17;6.93;;;5.80;99.90;;;;;;5063503;28;20095;-71
2022/01/07 09:12:41;;;;;;;18.88;6.75;;;5.90;99.90;;;;;;5065718;28;20027;-72
2022/01/07 09:15:07;;;;;;;15.35;5.85;;;5.90;99.90;;;;;;5067888;28;20115;-71
2022/01/07 09:17:34;;;;;;;21.15;6.90;;;6.00;99.90;;;;;;5061695;28;20048;-73
2022/01/07 09:20:00;;;;;;;18.65;6.03;;;6.00;99.90;;;;;;5063705;28;20048;-72
2022/01/07 09:22:25;;;;;;;19.92;6.43;;;6.00;99.90;;;;;;5056124;28;20095;-72
2022/01/07 09:24:51;;;;;;;21.38;6.60;;;6.00;99.90;;;;;;5065155;28;20518;-72
2022/01/07 09:27:17;;;;;;;17.23;6.05;;;5.90;99.90;;;;;;5066099;28;20023;-72
2022/01/07 09:29:42;;;;;;;17.70;6.05;;;6.00;99.90;;;;;;5065034;28;20024;-71
2022/01/07 09:32:08;;;;;;;20.30;6.00;;;6.00;99.90;;;;;;5060248;28;20013;-72
2022/01/07 09:34:35;;;;;;;20.23;5.80;;;6.00;99.90;;;;;;5067124;28;20120;-72
2022/01/07 09:37:02;;;;;;;14.77;5.22;;;6.00;99.90;;;;;;5054702;28;20025;-72
2022/01/07 09:39:28;;;;;;;14.80;5.10;;;6.00;99.90;;;;;;5060319;28;20430;-71
2022/01/07 09:41:54;;;;;;;14.82;4.97;;;6.00;99.90;;;;;;5061041;28;20032;-72
2022/01/07 09:44:19;;;;;;;16.10;5.85;;;5.90;99.90;;;;;;5053797;28;20048;-71
2022/01/07 09:46:45;;;;;;;24.13;5.95;;;5.90;99.90;;;;;;5063250;28;20021;-72
2022/01/07 09:49:11;;;;;;;17.30;6.18;;;5.90;99.90;;;;;;5057351;28;20432;-72
2022/01/07 09:51:38;;;;;;;26.88;6.82;;;5.90;99.90;;;;;;5063243;28;20021;-73
2022/01/07 09:54:04;;;;;;;21.85;6.93;;;5.90;99.90;;;;;;5059183;28;20024;-73
2022/01/07 09:56:30;;;;;;;17.55;6.07;;;6.00;99.90;;;;;;5060719;28;20528;-72
2022/01/07 09:58:55;;;;;;;16.00;6.68;;;6.00;99.90;;;;;;5070318;28;20059;-70
2022/01/07 10:01:23;;;;;;;18.25;6.60;;;6.00;99.90;;;;;;5045507;28;20051;-72
2022/01/07 10:03:48;;;;;;;23.85;6.43;;;6.00;99.90;;;;;;5063804;28;20027;-72
2022/01/07 10:06:20;;;;;;;23.70;6.60;;;6.00;99.90;;;;;;5068037;28;20017;-72
2022/01/07 10:08:58;;;;;;;22.63;6.80;;;6.00;99.90;;;;;;5067283;28;20041;-72
2022/01/07 10:11:23;;;;;;;22.30;6.63;;;6.00;99.90;;;;;;5060884;28;20029;-72
2022/01/07 10:14:10;;;;;;;21.20;7.35;;;6.00;99.90;;;;;;5062032;28;20021;-72
2022/01/07 10:16:53;;;;;;;16.80;6.93;;;6.10;99.90;;;;;;5062109;28;20027;-72
2022/01/07 10:19:33;;;;;;;19.08;6.22;;;6.10;99.90;;;;;;5057830;28;20027;-71
2022/01/07 10:22:03;;;;;;;19.67;6.38;;;6.20;99.90;;;;;;5069087;28;20047;-72
2022/01/07 10:24:29;;;;;;;21.30;5.70;;;6.30;99.90;;;;;;5064266;28;20049;-72
2022/01/07 10:27:14;;;;;;;21.98;6.28;;;6.40;99.90;;;;;;5054880;28;20384;-72
2022/01/07 10:29:41;;;;;;;21.02;5.85;;;6.50;99.90;;;;;;5034279;28;20040;-72
2022/01/07 10:32:20;;;;;;;18.45;5.65;;;6.60;99.90;;;;;;5051997;28;20029;-72
2022/01/07 10:35:09;;;;;;;18.92;5.68;;;6.70;99.90;;;;;;5056979;28;20021;-71
2022/01/07 10:37:59;;;;;;;19.27;5.03;;;6.80;99.90;;;;;;5059815;28;20501;-72
2022/01/07 10:40:41;;;;;;;14.90;4.53;;;6.90;99.90;;;;;;5064355;28;20017;-72
2022/01/07 10:43:15;;;;;;;18.60;4.35;;;6.90;99.90;;;;;;5053166;28;20032;-71
2022/01/07 10:45:47;;;;;;;16.77;4.70;;;7.00;99.90;;;;;;5050476;28;20127;-72
2022/01/07 10:48:14;;;;;;;16.73;4.45;;;7.00;99.90;;;;;;5056008;28;20033;-71
2022/01/07 10:50:45;;;;;;;16.98;3.88;;;7.00;99.90;;;;;;5050199;28;20496;-72
2022/01/07 10:53:29;;;;;;;18.17;3.90;;;7.10;99.90;;;;;;5055809;28;20020;-72
2022/01/07 10:56:14;;;;;;;21.50;3.95;;;7.10;99.90;;;;;;5059019;28;20027;-72
2022/01/07 10:58:43;;;;;;;17.05;3.50;;;7.20;99.90;;;;;;5056728;28;20385;-72
2022/01/07 11:01:33;;;;;;;19.92;3.25;;;7.30;99.90;;;;;;5047073;28;20090;-71
2022/01/07 11:21:40;;;;;;;15.55;2.20;;;7.60;99.90;;;;;;5095888;27;20320;-72
2022/01/07 11:24:39;;;;;;;11.80;1.88;;;7.60;99.90;;;;;;5073613;28;20449;-72
2022/01/07 11:27:07;;;;;;;20.38;2.53;;;7.50;99.90;;;;;;5081956;28;20508;-72
2022/01/07 11:29:46;;;;;;;14.98;1.90;;;7.30;99.90;;;;;;5069539;28;20367;-71
2022/01/07 11:32:26;;;;;;;14.23;2.15;;;7.20;99.90;;;;;;5072773;28;20036;-72
2022/01/07 11:35:18;;;;;;;14.63;1.58;;;7.20;99.90;;;;;;5070091;28;20036;-72
2022/01/07 11:37:45;;;;;;;14.57;1.92;;;7.10;99.90;;;;;;4992900;28;20125;-73
2022/01/07 11:40:33;;;;;;;9.45;1.50;;;7.00;99.90;;;;;;4985544;28;20077;-72
2022/01/07 11:43:18;;;;;;;11.77;1.83;;;7.00;99.90;;;;;;4987579;28;20043;-72
2022/01/07 11:45:45;;;;;;;10.73;1.58;;;7.00;99.90;;;;;;4983590;28;20490;-72
2022/01/07 11:48:11;;;;;;;11.70;1.83;;;7.00;99.90;;;;;;4985610;28;20066;-73
2022/01/07 11:50:48;;;;;;;15.05;2.13;;;7.00;99.90;;;;;;4988655;28;20446;-71
2022/01/07 11:53:14;;;;;;;13.18;1.80;;;6.90;99.90;;;;;;4989428;28;20058;-73
2022/01/07 11:55:41;;;;;;;10.98;1.90;;;6.90;99.90;;;;;;4988542;28;20029;-72
2022/01/07 11:58:10;;;;;;;12.40;1.75;;;6.90;99.90;;;;;;4988684;28;20050;-70
2022/01/07 12:00:50;;;;;;;14.98;2.10;;;6.90;99.90;;;;;;4997590;28;20094;-71
2022/01/07 12:03:29;;;;;;;14.05;1.65;;;6.90;99.90;;;;;;5005325;28;20030;-71
2022/01/07 12:05:54;;;;;;;13.13;2.03;;;6.90;99.90;;;;;;5009659;28;20106;-72
2022/01/07 12:08:36;;;;;;;12.80;1.92;;;6.90;99.90;;;;;;4993945;28;20109;-71
2022/01/07 12:11:11;;;;;;;9.70;1.63;;;6.80;99.90;;;;;;4989421;28;20073;-71
2022/01/07 12:13:40;;;;;;;;;;;6.90;99.90;;;;;;4991926;28;20037;-71
2022/01/07 12:16:06;;;;;;;13.13;1.83;;;6.80;99.90;;;;;;5050528;28;19924;-71
2022/01/07 12:18:35;;;;;;;13.60;2.20;;;6.90;99.90;;;;;;5050408;28;20040;-71
2022/01/07 12:21:02;;;;;;;12.55;2.22;;;6.90;99.90;;;;;;5025538;28;20112;-71
2022/01/07 12:23:27;;;;;;;18.58;2.20;;;6.90;99.90;;;;;;5023607;28;20030;-71
2022/01/07 12:25:55;;;;;;;13.80;2.60;;;6.90;99.90;;;;;;5038466;28;20021;-71
2022/01/07 12:28:21;;;;;;;11.68;1.98;;;6.90;99.90;;;;;;5038374;28;20045;-72
2022/01/07 12:30:49;;;;;;;16.67;2.30;;;6.90;99.90;;;;;;5037886;28;20100;-71
2022/01/07 12:33:15;;;;;;;13.80;2.10;;;6.90;99.90;;;;;;5038213;28;20028;-72
2022/01/07 12:35:41;;;;;;;9.93;2.10;;;6.90;99.90;;;;;;5041399;28;20088;-71
2022/01/07 12:38:18;;;;;;;8.60;1.83;;;6.80;99.90;;;;;;5016949;28;20057;-72
2022/01/07 12:40:52;;;;;;;16.48;2.55;;;6.80;99.90;;;;;;5033994;28;20025;-72
2022/01/07 12:43:28;;;;;;;11.10;1.57;;;6.80;99.90;;;;;;5007579;28;20034;-71
2022/01/07 12:46:17;;;;;;;12.70;1.80;;;6.80;99.90;;;;;;5019139;28;20049;-72
2022/01/07 12:48:44;;;;;;;13.57;2.15;;;6.70;99.90;;;;;;5030133;28;20033;-71
2022/01/07 12:51:10;;;;;;;10.23;1.83;;;6.60;99.90;;;;;;5026276;28;20564;-72
2022/01/07 12:53:36;;;;;;;10.02;1.88;;;6.50;99.90;;;;;;5018739;28;20018;-72
2022/01/07 12:56:21;;;;;;;9.90;2.03;;;6.40;99.90;;;;;;5018898;28;20538;-72
2022/01/07 12:58:47;;;;;;;12.60;1.73;;;6.40;99.90;;;;;;5001634;28;20029;-72
2022/01/07 13:01:26;;;;;;;11.48;1.73;;;6.30;99.90;;;;;;5032719;28;20033;-71
2022/01/07 13:04:09;;;;;;;13.80;2.40;;;6.30;99.90;;;;;;5027108;28;20417;-72
2022/01/07 13:06:43;;;;;;;15.80;2.75;;;6.30;99.90;;;;;;5018678;28;20030;-72
2022/01/07 13:09:11;;;;;;;11.65;1.95;;;6.30;99.90;;;;;;5035092;28;20040;-72
2022/01/07 13:11:37;;;;;;;5.68;1.42;;;6.30;99.90;;;;;;5037837;28;20018;-71
2022/01/07 13:14:05;;;;;;;5.70;1.10;;;6.30;99.90;;;;;;5035680;28;20395;-71